Aérodrome :
LOGIN :

S'inscrire | Disclaimer

   EN    FR    IT 

 










Légende :    VFR   VFR Marginal   IFR   IFR Intensif   IFR Très Intensif
Visi : 
Plafond : 
>= 8 km
>= 3000ft
5 à 8 km
1000 à 3000 ft
1500m à 5 km
500 à 1000 ft
800 à 1500m
200 à 500 ft
< 800m
< 200 ft
Symboles :   Orages  Brouillard  Fortes neiges  Fortes précipitations  Vent > 20 kt
SIGMETs :   Divers  Orages  Givrage  Turbulence  Onde Orograph.  Cendres Volcan.






- Altitude de l'aérodrome : 3 ft
- Code IATA : LWR


EHLW - Leuuwarden Air Base

DERNIER METAR :
  • 060125Z AUTO 25003KT 9999 OVC039 M01/M01 Q1034 BLU

METARs EXPIRÉS :
  • 060055Z AUTO 24003KT 9999 OVC035 M01/M02 Q1034 BLU
  • 060025Z AUTO 24002KT 9999 BKN039 M01/M02 Q1034 BLU
  • 052355Z AUTO 25002KT 9999 NCD M02/M02 Q1034 BLU
  • 052325Z AUTO 23002KT 9999 BKN042 M02/M02 Q1034 BLU
  • 052255Z AUTO 25002KT 9999 NCD M01/M01 Q1034 BLU

TAF TAF EHLW
Valide du 06 à 02h jusqu'au 06 à 14h UTC


060126Z 0602/0614 VRB03KT 9999 BKN035
BECMG 0605/0607 30006KT
PROB30
TEMPO 0605/0610 BKN015



MET'MAP, la Météo Aéronautique d'un coup d'oeil ! - Copyright ORBIFLY Décembre 2007 - Disclaimer

ORBIFLY MET'MAP TEAM :

Programmation & Développement : Alexandra Zaïnal
Sur une idée originale de : Baudouin d'Aumeries
Assistance à la programmation : Marc-Olivier Méhu
Soutien technique & logistique : Manuel Goepfert

Contact : metmap@orbifly.com




SOURCES & CREDITS :

   NOAA